createdAt,value
2023-04-11T00:00:45.122Z,13.5665
2023-04-11T00:01:46.160Z,13.5523
2023-04-11T00:03:11.057Z,13.5446
2023-04-11T00:03:49.322Z,13.5800
2023-04-11T00:04:50.965Z,13.5827
2023-04-11T00:05:51.880Z,13.5828
2023-04-11T00:06:52.856Z,13.5775
2023-04-11T00:07:53.825Z,13.5634
2023-04-11T00:08:55.044Z,13.5716
2023-04-11T00:09:56.553Z,13.5436
2023-04-11T00:10:57.493Z,13.6220
2023-04-11T00:11:58.389Z,13.5766
2023-04-11T00:12:59.309Z,13.5831
2023-04-11T00:14:00.232Z,13.5775
2023-04-11T00:15:01.177Z,13.5550
2023-04-11T00:16:02.228Z,13.5671
2023-04-11T00:17:03.388Z,13.5434
2023-04-11T00:18:04.240Z,13.5110
2023-04-11T00:19:05.124Z,13.5104
2023-04-11T00:20:06.042Z,13.4962
2023-04-11T00:21:07.016Z,13.5247
2023-04-11T00:22:07.950Z,13.5179
2023-04-11T00:23:08.926Z,13.5119
2023-04-11T00:24:09.787Z,13.5668
2023-04-11T00:25:10.725Z,13.5664
2023-04-11T00:26:11.667Z,13.4993
2023-04-11T00:27:12.591Z,13.5419
2023-04-11T00:28:13.494Z,13.6163
2023-04-11T00:29:14.478Z,13.5769
2023-04-11T00:30:15.419Z,13.5309
2023-04-11T00:31:16.290Z,13.5088
2023-04-11T00:32:17.217Z,13.5158
2023-04-11T00:33:18.102Z,13.5207
2023-04-11T00:34:19.025Z,13.5409
2023-04-11T00:35:19.965Z,13.5688
2023-04-11T00:36:21.002Z,13.5529
2023-04-11T00:37:22.068Z,13.6000
2023-04-11T00:38:23.029Z,13.6407
2023-04-11T00:39:23.940Z,13.6098
2023-04-11T00:40:24.905Z,13.5381
2023-04-11T00:41:25.802Z,13.5565
2023-04-11T00:42:26.700Z,13.5591
2023-04-11T00:43:27.723Z,13.5087
2023-04-11T00:44:28.721Z,13.4890
2023-04-11T00:45:29.684Z,13.4059
2023-04-11T00:46:30.582Z,13.3590
2023-04-11T00:47:31.610Z,13.2963
2023-04-11T00:48:32.586Z,13.2545
2023-04-11T00:49:33.477Z,13.2066
2023-04-11T00:50:34.473Z,13.1522
2023-04-11T00:51:35.409Z,13.1041
2023-04-11T00:52:36.328Z,13.0936
2023-04-11T00:53:37.293Z,13.0781
2023-04-11T00:54:38.234Z,13.0810
2023-04-11T00:55:39.159Z,13.0426
2023-04-11T00:56:40.119Z,12.9899
2023-04-11T00:57:41.025Z,12.9708
2023-04-11T00:58:42.075Z,12.9562
2023-04-11T00:59:43.082Z,12.9558
2023-04-11T01:01:45.274Z,12.9465
2023-04-11T01:02:46.880Z,12.9236
2023-04-11T01:03:48.349Z,12.9367
2023-04-11T01:04:49.528Z,12.8865
2023-04-11T01:05:50.535Z,12.9119
2023-04-11T01:06:51.529Z,12.8991
2023-04-11T01:07:52.547Z,12.8871
2023-04-11T01:08:53.905Z,12.8354
2023-04-11T01:09:55.908Z,12.8040
2023-04-11T01:10:56.901Z,12.7847
2023-04-11T01:11:57.925Z,12.7536
2023-04-11T01:12:58.912Z,12.7453
2023-04-11T01:13:59.926Z,12.7456
2023-04-11T01:15:00.971Z,12.7411
2023-04-11T01:16:01.962Z,12.7061
2023-04-11T01:17:03.037Z,12.6906
2023-04-11T01:18:04.156Z,12.6787
2023-04-11T01:19:05.168Z,12.6643
2023-04-11T01:20:06.142Z,12.7041
2023-04-11T01:21:07.161Z,12.6818
2023-04-11T01:22:08.112Z,12.6531
2023-04-11T01:23:09.102Z,12.7057
2023-04-11T01:24:10.139Z,12.6889
2023-04-11T01:25:11.196Z,12.6670
2023-04-11T01:26:12.399Z,12.6879
2023-04-11T01:27:13.400Z,12.7208
2023-04-11T01:28:14.462Z,12.7190
2023-04-11T01:29:15.519Z,12.7228
2023-04-11T01:30:16.542Z,12.7211
2023-04-11T01:31:17.695Z,12.7113
2023-04-11T01:32:18.691Z,12.6949
2023-04-11T01:33:19.790Z,12.6979
2023-04-11T01:34:20.817Z,12.6786
2023-04-11T01:35:21.779Z,12.6746
2023-04-11T01:36:22.794Z,12.6833
2023-04-11T01:37:23.784Z,12.6881
2023-04-11T01:38:24.737Z,12.6806
2023-04-11T01:39:25.698Z,12.6927
2023-04-11T01:40:26.736Z,12.6946
2023-04-11T01:41:27.770Z,12.6862
2023-04-11T01:42:28.767Z,12.6766
2023-04-11T01:43:29.714Z,12.7014
2023-04-11T01:44:30.740Z,12.7447
2023-04-11T01:45:31.712Z,12.7602
2023-04-11T01:46:32.681Z,12.7828
2023-04-11T01:47:33.717Z,12.7898
2023-04-11T01:48:34.906Z,12.7992
2023-04-11T01:49:36.035Z,12.8030
2023-04-11T01:50:37.069Z,12.8144
2023-04-11T01:51:38.010Z,12.8162
2023-04-11T01:52:39.066Z,12.8184
2023-04-11T01:53:40.094Z,12.8243
2023-04-11T01:54:41.080Z,12.8255
2023-04-11T01:55:42.084Z,12.8159
2023-04-11T01:56:43.072Z,12.8010
2023-04-11T01:57:44.087Z,12.7743
2023-04-11T01:58:45.062Z,12.7397
2023-04-11T01:59:46.091Z,12.7566
2023-04-11T02:00:47.109Z,12.7419
2023-04-11T02:01:48.225Z,12.6938
2023-04-11T02:02:49.480Z,12.6914
2023-04-11T02:03:50.848Z,12.7195
2023-04-11T02:04:52.076Z,12.7846
2023-04-11T02:05:53.098Z,12.7799
2023-04-11T02:06:54.117Z,12.7832
2023-04-11T02:07:55.164Z,12.7924
2023-04-11T02:08:56.327Z,12.7770
2023-04-11T02:09:58.017Z,12.7749
2023-04-11T02:10:59.027Z,12.7946
2023-04-11T02:12:00.027Z,12.8337
2023-04-11T02:13:01.108Z,12.8075
2023-04-11T02:14:02.208Z,12.7956
2023-04-11T02:15:03.279Z,12.7789
2023-04-11T02:16:04.272Z,12.7713
2023-04-11T02:17:05.314Z,12.8303
2023-04-11T02:18:06.316Z,12.8251
2023-04-11T02:19:07.428Z,12.8117
2023-04-11T02:20:08.457Z,12.8917
2023-04-11T02:21:09.443Z,12.9149
2023-04-11T02:22:10.447Z,12.9676
2023-04-11T02:23:11.436Z,13.0480
2023-04-11T02:24:13.517Z,13.0252
2023-04-11T02:25:14.554Z,13.0114
2023-04-11T02:26:15.528Z,12.9865
2023-04-11T02:27:16.534Z,12.9858
2023-04-11T02:28:17.545Z,13.0021
2023-04-11T02:29:18.564Z,13.0079
2023-04-11T02:30:19.629Z,12.9597
2023-04-11T02:31:20.678Z,12.9568
2023-04-11T02:32:21.925Z,13.0083
2023-04-11T02:33:23.178Z,13.0206
2023-04-11T02:34:24.128Z,13.0517
2023-04-11T02:35:25.106Z,13.0610
2023-04-11T02:36:26.143Z,13.0565
2023-04-11T02:37:27.221Z,13.0629
2023-04-11T02:38:28.192Z,13.0269
2023-04-11T02:39:29.281Z,13.0476
2023-04-11T02:40:30.270Z,13.0612
2023-04-11T02:41:31.264Z,13.0525
2023-04-11T02:42:32.302Z,13.0114
2023-04-11T02:43:33.261Z,12.9470
2023-04-11T02:44:34.272Z,12.9667
2023-04-11T02:45:35.301Z,12.9668
2023-04-11T02:46:36.540Z,12.9617
2023-04-11T02:47:37.746Z,12.9999
2023-04-11T02:48:38.817Z,12.9647
2023-04-11T02:49:39.895Z,12.7534
2023-04-11T02:50:41.008Z,12.6386
2023-04-11T02:51:42.255Z,12.5527
2023-04-11T02:52:43.307Z,12.5524
2023-04-11T02:53:43.535Z,12.4913
2023-04-11T02:54:44.579Z,12.5620
2023-04-11T02:55:45.624Z,12.5190
2023-04-11T02:56:46.675Z,12.5158
2023-04-11T02:57:47.751Z,12.5197
2023-04-11T02:58:48.772Z,12.4539
2023-04-11T02:59:49.853Z,12.5437
2023-04-11T03:00:50.865Z,12.5802
2023-04-11T03:01:52.001Z,12.6279
2023-04-11T03:02:53.193Z,12.6318
2023-04-11T03:03:54.380Z,12.6065
2023-04-11T03:04:55.568Z,12.5783
2023-04-11T03:05:56.554Z,12.5599
2023-04-11T03:06:57.587Z,12.5043
2023-04-11T03:07:58.805Z,12.4560
2023-04-11T03:08:59.844Z,12.4460
2023-04-11T03:10:01.018Z,12.3262
2023-04-11T03:11:02.035Z,12.1848
2023-04-11T03:12:03.034Z,12.0484
2023-04-11T03:13:04.061Z,12.0039
2023-04-11T03:14:05.111Z,11.9881
2023-04-11T03:15:06.165Z,11.9942
2023-04-11T03:16:07.336Z,12.0007
2023-04-11T03:17:08.544Z,12.0411
2023-04-11T03:18:09.707Z,12.0294
2023-04-11T03:19:10.775Z,12.0478
2023-04-11T03:20:11.905Z,11.9201
2023-04-11T03:21:12.984Z,11.6994
2023-04-11T03:22:14.033Z,11.5352
2023-04-11T03:23:15.123Z,11.4067
2023-04-11T03:24:16.212Z,11.3181
2023-04-11T03:25:17.283Z,11.3288
2023-04-11T03:26:18.369Z,11.2600
2023-04-11T03:27:19.474Z,11.2721
2023-04-11T03:28:20.573Z,11.2707
2023-04-11T03:29:21.793Z,11.2703
2023-04-11T03:30:22.862Z,11.2714
2023-04-11T03:31:24.938Z,11.3116
2023-04-11T03:32:26.085Z,11.3273
2023-04-11T03:33:27.211Z,11.2661
2023-04-11T03:34:28.253Z,11.1382
2023-04-11T03:35:29.476Z,11.0473
2023-04-11T03:36:30.570Z,10.9225
2023-04-11T03:37:31.703Z,10.8147
2023-04-11T03:38:32.812Z,10.7892
2023-04-11T03:39:33.923Z,10.7079
2023-04-11T03:40:35.041Z,10.6445
2023-04-11T03:41:36.106Z,10.5748
2023-04-11T03:42:37.171Z,10.4520
2023-04-11T03:43:38.490Z,10.3454
2023-04-11T03:44:39.562Z,10.2068
2023-04-11T03:45:40.644Z,10.2017
2023-04-11T03:46:41.886Z,10.2707
2023-04-11T03:47:43.246Z,10.2823
2023-04-11T03:48:44.397Z,10.2796
2023-04-11T03:49:45.422Z,10.2267
2023-04-11T03:50:46.505Z,10.1933
2023-04-11T03:51:47.556Z,10.1536
2023-04-11T03:52:48.629Z,10.0936
2023-04-11T03:53:49.724Z,10.0654
2023-04-11T03:54:50.816Z,9.9830
2023-04-11T03:55:51.962Z,9.9683
2023-04-11T03:56:53.029Z,10.0177
2023-04-11T03:57:54.110Z,9.9582
2023-04-11T03:58:55.380Z,9.9345
2023-04-11T03:59:57.104Z,9.9240
2023-04-11T04:00:58.159Z,9.9719
2023-04-11T04:01:59.304Z,9.9565
2023-04-11T04:03:00.659Z,9.9610
2023-04-11T04:04:02.898Z,9.9701
2023-04-11T04:05:03.467Z,9.8902
2023-04-11T04:06:04.824Z,9.9181
2023-04-11T04:07:05.878Z,9.8450
2023-04-11T04:08:07.064Z,9.8034
2023-04-11T04:09:09.224Z,9.7703
2023-04-11T04:10:10.291Z,9.7163
2023-04-11T04:11:11.411Z,9.6732
2023-04-11T04:12:12.543Z,9.6360
2023-04-11T04:13:13.661Z,9.5885
2023-04-11T04:14:14.783Z,9.5536
2023-04-11T04:15:15.898Z,9.5134
2023-04-11T04:16:17.100Z,9.4700
2023-04-11T04:17:18.161Z,9.4354
2023-04-11T04:18:19.294Z,9.3947
2023-04-11T04:19:20.375Z,9.3645
2023-04-11T04:20:21.488Z,9.3382
2023-04-11T04:21:22.585Z,9.3366
2023-04-11T04:22:23.708Z,9.3141
2023-04-11T04:23:24.852Z,9.2673
2023-04-11T04:24:26.062Z,9.2610
2023-04-11T04:25:27.141Z,9.2688
2023-04-11T04:26:28.312Z,9.2802
2023-04-11T04:27:29.462Z,9.2809
2023-04-11T04:28:30.463Z,9.2883
2023-04-11T04:29:31.701Z,9.2709
2023-04-11T04:30:36.048Z,9.2744
2023-04-11T04:31:37.603Z,9.2549
2023-04-11T04:32:38.843Z,9.2526
2023-04-11T04:33:40.235Z,9.2467
2023-04-11T04:34:41.322Z,9.2805
2023-04-11T04:35:42.399Z,9.2732
2023-04-11T04:36:43.479Z,9.2543
2023-04-11T04:37:44.558Z,9.2464
2023-04-11T04:38:45.652Z,9.2153
2023-04-11T04:39:46.713Z,9.2094
2023-04-11T04:40:50.131Z,9.2186
2023-04-11T04:41:49.384Z,9.2521
2023-04-11T04:42:50.407Z,9.2231
2023-04-11T04:43:51.525Z,9.2247
2023-04-11T04:44:52.735Z,9.1697
2023-04-11T04:45:53.912Z,9.1290
2023-04-11T04:46:55.004Z,9.1491
2023-04-11T04:47:56.079Z,9.1386
2023-04-11T04:48:57.294Z,9.1592
2023-04-11T04:49:58.475Z,9.1850
2023-04-11T04:50:59.551Z,9.2168
2023-04-11T04:52:00.679Z,9.1829
2023-04-11T04:53:01.766Z,9.1938
2023-04-11T04:54:02.888Z,9.0899
2023-04-11T04:55:04.006Z,9.1040
2023-04-11T04:56:05.099Z,9.1009
2023-04-11T04:57:06.364Z,9.0677
2023-04-11T04:58:07.547Z,9.0270
2023-04-11T04:59:08.632Z,8.9596
2023-04-11T05:00:09.783Z,8.9621
2023-04-11T05:01:10.889Z,8.9234
2023-04-11T05:02:12.618Z,8.8864
2023-04-11T05:03:13.857Z,8.8467
2023-04-11T05:04:15.240Z,8.8195
2023-04-11T05:05:17.183Z,8.8473
2023-04-11T05:06:19.751Z,8.8364
2023-04-11T05:07:19.086Z,8.7927
2023-04-11T05:08:20.197Z,8.8060
2023-04-11T05:09:21.366Z,8.7803
2023-04-11T05:10:22.473Z,8.7276
2023-04-11T05:11:23.672Z,8.6991
2023-04-11T05:12:24.733Z,8.7215
2023-04-11T05:13:25.848Z,8.7493
2023-04-11T05:14:26.943Z,8.7968
2023-04-11T05:15:28.052Z,8.7501
2023-04-11T05:16:29.195Z,8.7108
2023-04-11T05:17:30.303Z,8.7010
2023-04-11T05:18:31.417Z,8.7041
2023-04-11T05:19:32.626Z,8.6919
2023-04-11T05:20:33.719Z,8.6914
2023-04-11T05:21:34.815Z,8.7139
2023-04-11T05:22:35.961Z,8.7242
2023-04-11T05:23:37.119Z,8.7185
2023-04-11T05:24:40.033Z,8.7569
2023-04-11T05:25:41.168Z,8.7695
2023-04-11T05:26:42.291Z,8.7857
2023-04-11T05:27:43.412Z,8.7801
2023-04-11T05:28:44.564Z,8.7788
2023-04-11T05:29:45.701Z,8.7635
2023-04-11T05:30:46.928Z,8.7463
2023-04-11T05:31:48.014Z,8.7642
2023-04-11T05:32:49.202Z,8.7835
2023-04-11T05:33:50.532Z,8.7780
2023-04-11T05:34:51.750Z,8.7820
2023-04-11T05:35:52.923Z,8.7965
2023-04-11T05:36:54.122Z,8.7985
2023-04-11T05:37:55.307Z,8.8187
2023-04-11T05:38:56.468Z,8.8387
2023-04-11T05:39:57.647Z,8.8216
2023-04-11T05:40:58.802Z,8.8293
2023-04-11T05:42:00.001Z,8.8232
2023-04-11T05:43:01.198Z,8.8668
2023-04-11T05:44:02.388Z,8.8774
2023-04-11T05:45:03.497Z,8.8848
2023-04-11T05:46:04.624Z,8.9147
2023-04-11T05:47:05.813Z,8.9283
2023-04-11T05:48:08.094Z,8.9135
2023-04-11T05:49:09.265Z,8.8835
2023-04-11T05:50:10.361Z,8.8892
2023-04-11T05:51:11.547Z,8.8944
2023-04-11T05:52:12.860Z,8.8983
2023-04-11T05:53:14.043Z,8.8981
2023-04-11T05:54:15.271Z,8.9198
2023-04-11T05:55:16.395Z,8.9205
2023-04-11T05:56:17.554Z,8.9323
2023-04-11T05:57:18.743Z,8.9312
2023-04-11T05:58:19.876Z,8.9324
2023-04-11T05:59:25.730Z,8.9307
2023-04-11T06:00:22.818Z,8.9172
2023-04-11T06:01:23.985Z,8.9222
2023-04-11T06:02:25.303Z,8.9148
2023-04-11T06:03:26.702Z,8.9210
2023-04-11T06:04:28.742Z,8.9324
2023-04-11T06:05:30.545Z,8.9154
2023-04-11T06:06:31.742Z,8.9383
2023-04-11T06:07:32.954Z,8.9327
2023-04-11T06:08:34.072Z,8.9459
2023-04-11T06:09:35.274Z,8.9476
2023-04-11T06:10:36.449Z,8.9389
2023-04-11T06:11:37.572Z,8.9345
2023-04-11T06:12:38.754Z,8.9248
2023-04-11T06:13:39.922Z,8.9099
2023-04-11T06:14:41.067Z,8.9039
2023-04-11T06:15:42.333Z,8.9167
2023-04-11T06:16:43.468Z,8.9130
2023-04-11T06:17:44.726Z,8.8866
2023-04-11T06:18:46.082Z,8.8989
2023-04-11T06:19:47.229Z,8.8916
2023-04-11T06:20:48.363Z,8.8920
2023-04-11T06:21:49.546Z,8.8940
2023-04-11T06:22:50.694Z,8.9148
2023-04-11T06:23:51.833Z,8.9125
2023-04-11T06:24:52.996Z,8.8959
2023-04-11T06:25:54.129Z,8.8769
2023-04-11T06:26:55.401Z,8.8616
2023-04-11T06:27:56.541Z,8.8706
2023-04-11T06:28:57.747Z,8.8619
2023-04-11T06:29:58.905Z,8.8418
2023-04-11T06:31:00.198Z,8.8315
2023-04-11T06:32:01.426Z,8.7956
2023-04-11T06:33:02.611Z,8.7941
2023-04-11T06:34:03.735Z,8.8238
2023-04-11T06:35:04.899Z,8.8150
2023-04-11T06:36:06.217Z,8.7982
2023-04-11T06:37:07.408Z,8.8123
2023-04-11T06:38:08.605Z,8.8021
2023-04-11T06:39:09.787Z,8.7829
2023-04-11T06:40:10.955Z,8.7960
2023-04-11T06:41:12.087Z,8.8052
2023-04-11T06:42:13.396Z,8.8341
2023-04-11T06:43:14.534Z,8.8655
2023-04-11T06:44:15.774Z,8.8723
2023-04-11T06:45:16.906Z,8.8709
2023-04-11T06:46:18.112Z,8.8499
2023-04-11T06:47:19.377Z,8.8617
2023-04-11T06:48:20.535Z,8.8462
2023-04-11T06:49:21.724Z,8.8405
2023-04-11T06:50:22.899Z,8.8797
2023-04-11T06:51:24.045Z,8.8770
2023-04-11T06:52:27.567Z,8.8721
2023-04-11T06:53:27.117Z,8.8511
2023-04-11T06:54:28.307Z,8.8526
2023-04-11T06:55:29.468Z,8.8486
2023-04-11T06:56:30.589Z,8.8480
2023-04-11T06:57:31.691Z,8.8913
2023-04-11T06:58:32.875Z,8.8835
2023-04-11T06:59:33.993Z,8.9006
2023-04-11T07:00:35.149Z,8.9201
2023-04-11T07:01:36.371Z,8.9178
2023-04-11T07:02:37.905Z,8.9284
2023-04-11T07:03:39.722Z,8.9127
2023-04-11T07:04:41.446Z,8.8964
2023-04-11T07:05:42.792Z,8.8890
2023-04-11T07:06:43.917Z,8.8875
2023-04-11T07:07:45.046Z,8.8795
2023-04-11T07:08:46.328Z,8.9001
2023-04-11T07:09:47.571Z,8.9232
2023-04-11T07:10:48.692Z,8.9327
2023-04-11T07:11:49.868Z,8.9281
2023-04-11T07:12:51.021Z,8.9316
2023-04-11T07:13:52.166Z,8.9206
2023-04-11T07:14:53.321Z,8.9223
2023-04-11T07:15:54.513Z,8.9106
2023-04-11T07:16:55.617Z,8.8960
2023-04-11T07:17:56.808Z,8.8560
2023-04-11T07:18:57.961Z,8.8456
2023-04-11T07:19:59.124Z,8.8432
2023-04-11T07:21:00.336Z,8.8560
2023-04-11T07:22:01.454Z,8.8303
2023-04-11T07:23:02.680Z,8.8093
2023-04-11T07:24:03.940Z,8.7400
2023-04-11T07:25:05.196Z,8.7294
2023-04-11T07:26:06.306Z,8.7535
2023-04-11T07:27:07.480Z,8.7581
2023-04-11T07:28:08.634Z,8.7388
2023-04-11T07:29:11.553Z,8.7540
2023-04-11T07:30:11.467Z,8.7751
2023-04-11T07:31:12.655Z,8.7735
2023-04-11T07:32:13.799Z,8.7264
2023-04-11T07:33:14.944Z,8.7248
2023-04-11T07:34:16.140Z,8.7275
2023-04-11T07:35:17.281Z,8.7577
2023-04-11T07:36:18.457Z,8.7291
2023-04-11T07:37:19.601Z,8.7249
2023-04-11T07:38:20.740Z,8.7082
2023-04-11T07:39:22.131Z,8.6754
2023-04-11T07:40:23.281Z,8.6889
2023-04-11T07:41:26.058Z,8.6904
2023-04-11T07:42:24.967Z,8.6481
2023-04-11T07:43:25.685Z,8.6473
2023-04-11T07:44:27.886Z,8.6498
2023-04-11T07:45:29.093Z,8.5861
2023-04-11T07:46:30.269Z,8.5692
2023-04-11T07:47:31.534Z,8.5641
2023-04-11T07:48:32.665Z,8.5531
2023-04-11T07:49:36.640Z,8.5629
2023-04-11T07:50:34.791Z,8.5765
2023-04-11T07:51:35.933Z,8.5429
2023-04-11T07:52:37.121Z,8.5426
2023-04-11T07:53:38.309Z,8.5506
2023-04-11T07:54:39.460Z,8.5173
2023-04-11T07:55:40.642Z,8.5102
2023-04-11T07:56:41.780Z,8.5059
2023-04-11T07:57:42.956Z,8.5107
2023-04-11T07:58:44.157Z,8.5404
2023-04-11T07:59:45.294Z,8.5546
2023-04-11T08:00:46.455Z,8.4953
2023-04-11T08:01:47.675Z,8.5057
2023-04-11T08:02:49.120Z,8.5257
2023-04-11T08:03:51.397Z,8.5229
2023-04-11T08:04:53.208Z,8.5091
2023-04-11T08:05:54.886Z,8.5244
2023-04-11T08:06:56.056Z,8.5003
2023-04-11T08:07:57.236Z,8.4948
2023-04-11T08:08:58.436Z,8.5150
2023-04-11T08:09:59.694Z,8.4863
2023-04-11T08:11:00.905Z,8.4202
2023-04-11T08:12:02.163Z,8.4157
2023-04-11T08:13:03.380Z,8.4623
2023-04-11T08:14:04.573Z,8.4699
2023-04-11T08:15:05.730Z,8.4671
2023-04-11T08:16:06.882Z,8.4433
2023-04-11T08:17:14.817Z,8.4276
2023-04-11T08:18:12.157Z,8.4494
2023-04-11T08:19:11.399Z,8.4271
2023-04-11T08:20:12.594Z,8.4206
2023-04-11T08:21:13.774Z,8.4348
2023-04-11T08:22:14.960Z,8.4049
2023-04-11T08:23:16.584Z,8.4530
2023-04-11T08:24:17.934Z,8.4483
2023-04-11T08:25:19.282Z,8.4105
2023-04-11T08:26:21.645Z,8.3967
2023-04-11T08:27:22.841Z,8.4052
2023-04-11T08:28:24.004Z,8.4261
2023-04-11T08:29:25.330Z,8.4296
2023-04-11T08:30:26.666Z,8.4493
2023-04-11T08:31:27.938Z,8.4739
2023-04-11T08:32:29.186Z,8.4672
2023-04-11T08:33:30.396Z,8.4508
2023-04-11T08:34:31.585Z,8.4719
2023-04-11T08:35:32.853Z,8.4918
2023-04-11T08:36:34.149Z,8.5151
2023-04-11T08:37:35.284Z,8.4881
2023-04-11T08:38:36.441Z,8.4488
2023-04-11T08:39:37.621Z,8.4332
2023-04-11T08:40:38.718Z,8.4213
2023-04-11T08:41:39.954Z,8.4059
2023-04-11T08:42:41.387Z,8.4107
2023-04-11T08:43:42.824Z,8.4115
2023-04-11T08:44:44.181Z,8.4345
2023-04-11T08:45:45.588Z,8.4951
2023-04-11T08:46:46.822Z,8.4741
2023-04-11T08:47:49.015Z,8.4660
2023-04-11T08:48:50.122Z,8.4803
2023-04-11T08:49:51.275Z,8.4479
2023-04-11T08:50:52.442Z,8.4403
2023-04-11T08:51:53.551Z,8.4291
2023-04-11T08:52:54.735Z,8.4361
2023-04-11T08:53:56.037Z,8.4430
2023-04-11T08:54:57.569Z,8.4296
2023-04-11T08:55:58.701Z,8.4438
2023-04-11T08:56:59.869Z,8.4301
2023-04-11T08:58:01.069Z,8.4186
2023-04-11T08:59:03.237Z,8.4081
2023-04-11T09:00:04.640Z,8.4006
2023-04-11T09:01:05.910Z,8.4122
2023-04-11T09:02:07.275Z,8.4819
2023-04-11T09:03:08.823Z,8.5321
2023-04-11T09:04:10.100Z,8.5545
2023-04-11T09:05:11.334Z,8.5921
2023-04-11T09:06:12.613Z,8.6438
2023-04-11T09:07:13.782Z,8.6717
2023-04-11T09:08:14.920Z,8.6845
2023-04-11T09:09:16.058Z,8.7183
2023-04-11T09:10:17.228Z,8.7568
2023-04-11T09:11:18.373Z,8.7725
2023-04-11T09:12:19.520Z,8.7564
2023-04-11T09:13:20.674Z,8.7401
2023-04-11T09:14:21.838Z,8.7034
2023-04-11T09:15:22.993Z,8.6924
2023-04-11T09:16:24.181Z,8.7408
2023-04-11T09:17:25.463Z,8.7654
2023-04-11T09:18:26.636Z,8.7716
2023-04-11T09:19:27.759Z,8.7602
2023-04-11T09:20:28.932Z,8.7486
2023-04-11T09:21:31.157Z,8.7617
2023-04-11T09:22:32.368Z,8.8355
2023-04-11T09:23:33.474Z,8.9117
2023-04-11T09:24:35.613Z,8.8626
2023-04-11T09:25:34.711Z,8.8600
2023-04-11T09:26:35.911Z,8.8378
2023-04-11T09:27:37.031Z,8.7884
2023-04-11T09:28:38.226Z,8.7757
2023-04-11T09:29:39.397Z,8.8130
2023-04-11T09:30:40.521Z,8.8184
2023-04-11T09:31:41.764Z,8.7720
2023-04-11T09:32:43.130Z,8.7966
2023-04-11T09:33:44.245Z,8.7849
2023-04-11T09:34:45.524Z,8.7839
2023-04-11T09:35:46.682Z,8.8260
2023-04-11T09:36:47.838Z,8.8639
2023-04-11T09:37:49.023Z,8.9164
2023-04-11T09:38:50.213Z,8.8927
2023-04-11T09:39:51.361Z,8.8826
2023-04-11T09:40:52.506Z,8.8886
2023-04-11T09:41:53.661Z,8.8983
2023-04-11T09:42:54.809Z,8.9625
2023-04-11T09:43:56.386Z,8.9894
2023-04-11T09:44:58.401Z,9.0352
2023-04-11T09:45:59.537Z,9.0805
2023-04-11T09:47:00.719Z,9.0938
2023-04-11T09:48:02.558Z,9.1464
2023-04-11T09:49:04.028Z,9.1740
2023-04-11T09:50:05.996Z,9.1585
2023-04-11T09:51:07.107Z,9.1709
2023-04-11T09:52:08.217Z,9.2905
2023-04-11T09:53:09.281Z,9.3081
2023-04-11T09:54:10.417Z,9.3727
2023-04-11T09:55:11.584Z,9.3021
2023-04-11T09:56:12.718Z,9.3196
2023-04-11T09:57:13.826Z,9.3710
2023-04-11T09:58:14.920Z,9.4330
2023-04-11T09:59:16.040Z,9.4665
2023-04-11T10:00:17.259Z,9.5736
2023-04-11T10:01:18.381Z,9.6322
2023-04-11T10:02:19.546Z,9.6698
2023-04-11T10:03:21.008Z,9.6171
2023-04-11T10:04:22.687Z,9.7471
2023-04-11T10:05:23.874Z,9.7791
2023-04-11T10:06:25.109Z,9.9106
2023-04-11T10:07:26.276Z,9.8933
2023-04-11T10:08:27.424Z,9.9372
2023-04-11T10:09:28.567Z,10.0189
2023-04-11T10:10:29.716Z,9.9217
2023-04-11T10:11:30.883Z,9.9829
2023-04-11T10:12:32.014Z,10.0893
2023-04-11T10:13:33.184Z,10.2064
2023-04-11T10:14:34.349Z,10.2793
2023-04-11T10:15:35.546Z,10.3043
2023-04-11T10:16:36.671Z,10.3088
2023-04-11T10:17:37.978Z,10.3722
2023-04-11T10:18:39.305Z,10.2540
2023-04-11T10:19:40.497Z,10.0918
2023-04-11T10:20:41.696Z,10.2725
2023-04-11T10:21:43.220Z,10.1705
2023-04-11T10:22:44.893Z,10.3910
2023-04-11T10:23:46.016Z,10.3710
2023-04-11T10:24:47.147Z,10.1979
2023-04-11T10:25:48.355Z,10.0539
2023-04-11T10:26:49.543Z,10.1544
2023-04-11T10:27:50.711Z,10.2200
2023-04-11T10:28:51.882Z,10.1718
2023-04-11T10:29:53.095Z,10.1988
2023-04-11T10:30:54.276Z,10.3162
2023-04-11T10:31:55.723Z,10.3687
2023-04-11T10:32:57.204Z,10.3099
2023-04-11T10:33:58.586Z,10.1359
2023-04-11T10:34:59.703Z,10.1884
2023-04-11T10:36:00.874Z,10.2725
2023-04-11T10:37:02.021Z,10.3360
2023-04-11T10:38:03.236Z,10.2563
2023-04-11T10:39:04.423Z,10.2418
2023-04-11T10:40:05.569Z,10.1733
2023-04-11T10:41:06.787Z,10.0136
2023-04-11T10:42:07.982Z,10.1124
2023-04-11T10:43:09.135Z,10.1192
2023-04-11T10:44:10.468Z,10.0613
2023-04-11T10:45:11.668Z,10.0526
2023-04-11T10:46:12.842Z,10.0185
2023-04-11T10:47:14.055Z,9.9423
2023-04-11T10:48:15.238Z,10.0022
2023-04-11T10:49:16.439Z,10.0196
2023-04-11T10:50:17.647Z,10.0989
2023-04-11T10:51:18.771Z,10.0578
2023-04-11T10:52:19.929Z,10.0221
2023-04-11T10:53:21.142Z,9.7790
2023-04-11T10:54:22.320Z,9.9117
2023-04-11T10:55:23.491Z,9.8286
2023-04-11T10:56:24.701Z,9.8302
2023-04-11T10:57:25.925Z,9.8546
2023-04-11T10:58:27.150Z,9.9408
2023-04-11T10:59:28.301Z,9.9591
2023-04-11T11:00:30.218Z,9.9580
2023-04-11T11:01:36.961Z,9.9328
2023-04-11T11:02:31.457Z,10.0131
2023-04-11T11:03:33.208Z,10.1245
2023-04-11T11:04:35.216Z,10.0812
2023-04-11T11:05:36.623Z,10.1136
2023-04-11T11:06:46.766Z,10.0748
2023-04-11T11:07:39.374Z,10.0839
2023-04-11T11:08:40.494Z,10.0560
2023-04-11T11:09:41.685Z,9.9378
2023-04-11T11:10:42.809Z,9.8866
2023-04-11T11:11:44.042Z,9.8268
2023-04-11T11:12:45.357Z,9.7371
2023-04-11T11:13:46.496Z,9.7539
2023-04-11T11:14:47.736Z,9.7405
2023-04-11T11:15:48.886Z,9.7369
2023-04-11T11:16:50.072Z,9.7466
2023-04-11T11:17:51.348Z,9.7816
2023-04-11T11:18:52.565Z,9.8567
2023-04-11T11:19:53.746Z,9.7444
2023-04-11T11:20:54.927Z,9.7000
2023-04-11T11:21:56.144Z,9.7124
2023-04-11T11:22:57.362Z,9.6941
2023-04-11T11:23:59.027Z,9.6372
2023-04-11T11:25:00.572Z,9.6320
2023-04-11T11:26:01.798Z,9.5844
2023-04-11T11:27:03.085Z,9.5877
2023-04-11T11:28:04.367Z,9.5879
2023-04-11T11:29:05.567Z,9.5914
2023-04-11T11:30:06.877Z,9.6350
2023-04-11T11:31:08.015Z,9.6324
2023-04-11T11:32:09.301Z,9.5459
2023-04-11T11:33:10.603Z,9.5242
2023-04-11T11:34:22.647Z,9.4756
2023-04-11T11:35:12.823Z,9.5091
2023-04-11T11:36:14.054Z,9.4970
2023-04-11T11:37:15.227Z,9.5372
2023-04-11T11:38:16.434Z,9.5703
2023-04-11T11:39:17.623Z,9.5801
2023-04-11T11:40:18.818Z,9.5979
2023-04-11T11:41:20.036Z,9.6249
2023-04-11T11:42:21.259Z,9.5074
2023-04-11T11:43:22.522Z,9.4594
2023-04-11T11:44:23.693Z,9.4410
2023-04-11T11:46:27.268Z,9.3716
2023-04-11T11:47:28.455Z,9.4506
2023-04-11T11:48:29.680Z,9.4894
2023-04-11T11:49:30.822Z,9.5200
2023-04-11T11:50:32.044Z,9.4663
2023-04-11T11:51:33.217Z,9.4784
2023-04-11T11:52:34.407Z,9.4854
2023-04-11T11:53:35.571Z,9.4205
2023-04-11T11:54:36.761Z,9.4166
2023-04-11T11:55:38.009Z,9.4453
2023-04-11T11:56:39.186Z,9.4790
2023-04-11T11:57:40.318Z,9.4895
2023-04-11T11:58:41.550Z,9.5062
2023-04-11T11:59:42.763Z,9.5242
2023-04-11T12:00:43.981Z,9.5765
2023-04-11T12:01:45.339Z,9.5834
2023-04-11T12:02:46.800Z,9.5172
2023-04-11T12:03:48.683Z,9.5815
2023-04-11T12:04:50.634Z,9.6352
2023-04-11T12:05:52.519Z,9.6028
2023-04-11T12:06:53.681Z,9.6574
2023-04-11T12:07:54.940Z,9.7330
2023-04-11T12:08:56.116Z,9.6434
2023-04-11T12:09:57.311Z,9.6438
2023-04-11T12:10:58.526Z,9.6045
2023-04-11T12:11:59.724Z,9.5940
2023-04-11T12:13:00.918Z,9.6384
2023-04-11T12:14:02.066Z,9.6635
2023-04-11T12:15:03.266Z,9.7672
2023-04-11T12:16:04.496Z,9.7989
2023-04-11T12:17:05.684Z,9.8692
2023-04-11T12:18:06.884Z,9.8505
2023-04-11T12:19:08.362Z,9.8666
2023-04-11T12:20:09.542Z,9.8562
2023-04-11T12:21:10.796Z,9.8281
2023-04-11T12:22:13.108Z,9.9361
2023-04-11T12:23:14.395Z,9.9062
2023-04-11T12:24:15.562Z,9.9365
2023-04-11T12:25:16.690Z,10.0350
2023-04-11T12:26:17.900Z,10.0827
2023-04-11T12:27:19.082Z,10.0605
2023-04-11T12:28:20.286Z,10.0705
2023-04-11T12:29:21.601Z,10.1187
2023-04-11T12:30:22.836Z,10.2252
2023-04-11T12:31:24.116Z,10.2967
2023-04-11T12:32:25.389Z,10.2779
2023-04-11T12:33:26.553Z,10.2833
2023-04-11T12:34:27.721Z,10.2676
2023-04-11T12:35:28.908Z,10.3374
2023-04-11T12:36:30.314Z,10.3400